createdAt,value
2022-10-23T00:01:02.469Z,14.00
2022-10-23T00:03:30.384Z,14.00
2022-10-23T00:05:59.661Z,14.00
2022-10-23T00:08:27.683Z,13.90
2022-10-23T00:10:55.730Z,13.90
2022-10-23T00:13:23.687Z,13.90
2022-10-23T00:18:20.449Z,13.90
2022-10-23T00:20:48.423Z,13.90
2022-10-23T00:23:17.994Z,13.80
2022-10-23T00:25:45.900Z,13.70
2022-10-23T00:28:13.898Z,13.70
2022-10-23T00:30:41.827Z,13.60
2022-10-23T00:33:10.252Z,13.50
2022-10-23T00:35:40.869Z,13.40
2022-10-23T00:38:09.649Z,13.40
2022-10-23T00:40:40.526Z,13.40
2022-10-23T00:43:08.626Z,13.50
2022-10-23T00:45:36.573Z,13.50
2022-10-23T00:48:05.637Z,13.50
2022-10-23T00:50:34.432Z,13.60
2022-10-23T00:53:04.805Z,13.60
2022-10-23T00:55:34.733Z,13.60
2022-10-23T00:58:04.172Z,13.70
2022-10-23T01:00:43.026Z,13.70
2022-10-23T01:03:11.039Z,13.70
2022-10-23T01:05:49.911Z,13.70
2022-10-23T01:08:26.463Z,13.70
2022-10-23T01:11:03.007Z,13.70
2022-10-23T01:13:40.680Z,13.70
2022-10-23T01:16:14.952Z,13.60
2022-10-23T01:18:48.858Z,13.60
2022-10-23T01:21:23.286Z,13.60
2022-10-23T01:24:09.322Z,13.60
2022-10-23T01:26:48.110Z,13.60
2022-10-23T01:29:27.153Z,13.60
2022-10-23T01:32:00.126Z,13.70
2022-10-23T01:34:50.733Z,13.60
2022-10-23T01:37:24.251Z,13.60
2022-10-23T01:39:56.337Z,13.60
2022-10-23T01:42:30.859Z,13.60
2022-10-23T01:45:03.604Z,13.60
2022-10-23T01:47:33.483Z,13.60
2022-10-23T01:50:03.356Z,13.60
2022-10-23T01:52:31.444Z,13.60
2022-10-23T01:55:01.590Z,13.50
2022-10-23T01:57:32.351Z,13.60
2022-10-23T02:00:05.510Z,13.50
2022-10-23T02:02:34.764Z,13.50
2022-10-23T02:05:07.526Z,13.50
2022-10-23T02:07:35.301Z,13.50
2022-10-23T02:10:05.977Z,13.40
2022-10-23T02:12:42.364Z,13.40
2022-10-23T02:15:15.967Z,13.40
2022-10-23T02:17:51.677Z,13.40
2022-10-23T02:20:23.765Z,13.40
2022-10-23T02:22:59.401Z,13.40
2022-10-23T02:25:34.317Z,13.40
2022-10-23T02:28:06.906Z,13.40
2022-10-23T02:30:38.842Z,13.40
2022-10-23T02:33:09.078Z,13.40
2022-10-23T02:35:37.215Z,13.40
2022-10-23T02:38:25.341Z,13.40
2022-10-23T02:40:54.787Z,13.40
2022-10-23T02:43:29.264Z,13.40
2022-10-23T02:46:07.677Z,13.40
2022-10-23T02:48:43.932Z,13.40
2022-10-23T02:51:15.801Z,13.40
2022-10-23T02:53:50.198Z,13.40
2022-10-23T02:56:25.543Z,13.40
2022-10-23T02:59:06.158Z,13.30
2022-10-23T03:01:41.203Z,13.30
2022-10-23T03:04:12.374Z,13.30
2022-10-23T03:06:40.515Z,13.30
2022-10-23T03:09:10.285Z,13.30
2022-10-23T03:11:38.207Z,13.30
2022-10-23T03:14:06.066Z,13.30
2022-10-23T03:16:35.584Z,13.30
2022-10-23T03:19:03.591Z,13.20
2022-10-23T03:21:31.581Z,13.20
2022-10-23T03:23:59.528Z,13.20
2022-10-23T03:26:27.465Z,13.20
2022-10-23T03:28:55.371Z,13.20
2022-10-23T03:31:23.353Z,13.20
2022-10-23T03:33:52.720Z,13.20
2022-10-23T03:36:20.695Z,13.20
2022-10-23T03:38:48.839Z,13.20
2022-10-23T03:41:16.813Z,13.20
2022-10-23T03:43:44.717Z,13.20
2022-10-23T03:46:13.088Z,13.20
2022-10-23T03:48:41.997Z,13.20
2022-10-23T03:51:11.315Z,13.20
2022-10-23T03:53:39.320Z,13.20
2022-10-23T03:56:07.787Z,13.20
2022-10-23T03:58:35.740Z,13.20
2022-10-23T04:01:03.784Z,13.20
2022-10-23T04:03:31.900Z,13.20
2022-10-23T04:05:59.855Z,13.20
2022-10-23T04:08:29.325Z,13.20
2022-10-23T04:10:57.491Z,13.20
2022-10-23T04:13:34.569Z,13.20
2022-10-23T04:16:02.710Z,13.20
2022-10-23T04:18:30.646Z,13.20
2022-10-23T04:20:58.656Z,13.20
2022-10-23T04:23:26.702Z,13.20
2022-10-23T04:25:58.910Z,13.20
2022-10-23T04:28:27.281Z,13.20
2022-10-23T04:30:55.273Z,13.20
2022-10-23T04:33:23.293Z,13.20
2022-10-23T04:35:51.417Z,13.20
2022-10-23T04:38:19.461Z,13.20
2022-10-23T04:40:47.399Z,13.20
2022-10-23T04:43:16.734Z,13.20
2022-10-23T04:45:44.771Z,13.10
2022-10-23T04:48:12.689Z,13.10
2022-10-23T04:50:40.625Z,13.10
2022-10-23T04:53:10.553Z,13.00
2022-10-23T04:55:38.464Z,13.00
2022-10-23T04:58:06.383Z,13.00
2022-10-23T05:00:35.771Z,13.00
2022-10-23T05:03:03.774Z,13.00
2022-10-23T05:05:32.063Z,13.00
2022-10-23T05:08:00.010Z,13.00
2022-10-23T05:10:28.059Z,12.90
2022-10-23T05:12:56.026Z,12.90
2022-10-23T05:15:24.060Z,12.90
2022-10-23T05:17:56.605Z,12.90
2022-10-23T05:20:29.373Z,12.90
2022-10-23T05:22:57.820Z,12.80
2022-10-23T05:25:25.765Z,12.70
2022-10-23T05:27:53.981Z,12.70
2022-10-23T05:30:22.131Z,12.60
2022-10-23T05:32:50.117Z,12.60
2022-10-23T05:35:23.215Z,12.50
2022-10-23T05:37:53.521Z,12.50
2022-10-23T05:40:21.583Z,12.60
2022-10-23T05:42:49.689Z,12.60
2022-10-23T05:45:17.796Z,12.60
2022-10-23T05:47:46.059Z,12.60
2022-10-23T05:50:14.487Z,12.60
2022-10-23T05:52:46.544Z,12.60
2022-10-23T05:55:14.538Z,12.60
2022-10-23T05:57:42.775Z,12.50
2022-10-23T06:00:12.426Z,12.40
2022-10-23T06:02:40.621Z,12.40
2022-10-23T06:05:09.362Z,12.50
2022-10-23T06:07:37.793Z,12.50
2022-10-23T06:10:08.044Z,12.50
2022-10-23T06:12:36.134Z,12.30
2022-10-23T06:15:04.822Z,12.10
2022-10-23T06:17:32.934Z,12.10
2022-10-23T06:20:02.536Z,12.10
2022-10-23T06:22:30.931Z,12.10
2022-10-23T06:24:58.934Z,12.10
2022-10-23T06:27:28.274Z,12.10
2022-10-23T06:29:56.187Z,12.10
2022-10-23T06:32:24.199Z,12.20
2022-10-23T06:34:52.181Z,12.20
2022-10-23T06:37:20.217Z,12.20
2022-10-23T06:39:48.191Z,12.20
2022-10-23T06:42:16.179Z,12.10
2022-10-23T06:44:45.561Z,12.10
2022-10-23T06:47:14.375Z,12.10
2022-10-23T06:49:42.465Z,12.10
2022-10-23T06:52:14.435Z,12.20
2022-10-23T06:54:56.697Z,12.30
2022-10-23T06:57:45.787Z,12.40
2022-10-23T07:00:35.746Z,12.50
2022-10-23T07:03:24.189Z,12.60
2022-10-23T07:05:53.165Z,12.60
2022-10-23T07:08:21.738Z,12.70
2022-10-23T07:10:49.598Z,12.80
2022-10-23T07:13:17.505Z,12.80
2022-10-23T07:15:46.862Z,12.80
2022-10-23T07:18:16.866Z,12.80
2022-10-23T07:20:46.956Z,12.70
2022-10-23T07:23:16.183Z,12.70
2022-10-23T07:25:44.215Z,12.70
2022-10-23T07:28:12.150Z,12.80
2022-10-23T07:30:40.976Z,12.90
2022-10-23T07:33:12.425Z,13.00
2022-10-23T07:35:40.857Z,13.00
2022-10-23T07:38:08.861Z,13.10
2022-10-23T07:40:36.729Z,13.20
2022-10-23T07:43:04.667Z,13.30
2022-10-23T07:45:32.636Z,13.30
2022-10-23T07:48:00.624Z,13.30
2022-10-23T07:50:29.974Z,13.40
2022-10-23T07:52:58.616Z,13.40
2022-10-23T07:55:26.646Z,13.50
2022-10-23T07:57:54.676Z,13.50
2022-10-23T08:02:50.695Z,13.60
2022-10-23T08:05:20.722Z,13.70
2022-10-23T08:07:50.165Z,13.70
2022-10-23T08:10:18.401Z,13.80
2022-10-23T08:12:46.469Z,13.80
2022-10-23T08:15:14.403Z,13.90
2022-10-23T08:17:42.714Z,13.90
2022-10-23T08:20:13.575Z,13.90
2022-10-23T08:22:41.613Z,14.00
2022-10-23T08:25:11.759Z,14.00
2022-10-23T08:27:40.047Z,14.10
2022-10-23T08:30:09.031Z,14.20
2022-10-23T08:32:37.019Z,14.20
2022-10-23T08:35:05.530Z,14.30
2022-10-23T08:37:33.664Z,14.40
2022-10-23T08:40:01.762Z,14.40
2022-10-23T08:42:31.347Z,14.50
2022-10-23T08:45:06.784Z,14.50
2022-10-23T08:47:40.368Z,14.50
2022-10-23T08:50:15.299Z,14.60
2022-10-23T08:52:50.383Z,14.60
2022-10-23T08:55:24.454Z,14.60
2022-10-23T08:58:00.200Z,14.60
2022-10-23T09:00:29.436Z,14.60
2022-10-23T09:02:57.865Z,14.70
2022-10-23T09:05:31.754Z,14.70
2022-10-23T09:08:10.263Z,14.70
2022-10-23T09:10:59.766Z,14.80
2022-10-23T09:13:46.479Z,14.80
2022-10-23T09:16:25.482Z,14.90
2022-10-23T09:18:54.539Z,15.00
2022-10-23T09:21:27.804Z,15.10
2022-10-23T09:23:55.850Z,15.20
2022-10-23T09:26:23.804Z,15.30
2022-10-23T09:28:58.066Z,15.40
2022-10-23T09:31:26.099Z,15.50
2022-10-23T09:33:59.643Z,15.60
2022-10-23T09:36:29.325Z,15.70
2022-10-23T09:39:00.021Z,15.80
2022-10-23T09:41:31.102Z,15.90
2022-10-23T09:44:18.435Z,16.00
2022-10-23T09:46:48.436Z,16.10
2022-10-23T09:49:21.841Z,16.20
2022-10-23T09:52:02.325Z,16.30
2022-10-23T09:54:32.922Z,16.40
2022-10-23T09:57:05.994Z,16.40
2022-10-23T09:59:35.543Z,16.50
2022-10-23T10:02:05.119Z,16.60
2022-10-23T10:04:35.389Z,16.70
2022-10-23T10:07:18.669Z,16.80
2022-10-23T10:09:46.822Z,16.90
2022-10-23T10:12:33.174Z,17.00
2022-10-23T10:15:16.396Z,17.10
2022-10-23T10:17:53.439Z,17.20
2022-10-23T10:20:41.628Z,17.20
2022-10-23T10:23:19.457Z,17.30
2022-10-23T10:25:57.402Z,17.30
2022-10-23T10:28:35.816Z,17.30
2022-10-23T10:31:15.863Z,17.30
2022-10-23T10:33:53.421Z,17.40
2022-10-23T10:36:35.177Z,17.40
2022-10-23T10:39:06.554Z,17.40
2022-10-23T10:41:45.259Z,17.50
2022-10-23T10:44:25.263Z,17.50
2022-10-23T10:46:59.767Z,17.50
2022-10-23T10:49:33.819Z,17.40
2022-10-23T10:52:11.263Z,17.40
2022-10-23T10:54:48.713Z,17.40
2022-10-23T10:57:28.173Z,17.40
2022-10-23T10:59:58.485Z,17.40
2022-10-23T11:02:46.421Z,17.50
2022-10-23T11:05:26.353Z,17.60
2022-10-23T11:07:57.844Z,17.60
2022-10-23T11:10:26.271Z,17.60
2022-10-23T11:12:54.272Z,17.70
2022-10-23T11:15:27.432Z,17.70
2022-10-23T11:18:00.370Z,17.80
2022-10-23T11:20:45.932Z,17.90
2022-10-23T11:23:56.390Z,17.90
2022-10-23T11:26:36.116Z,18.00
2022-10-23T11:29:40.782Z,18.10
2022-10-23T11:32:27.558Z,18.10
2022-10-23T11:35:25.118Z,18.10
2022-10-23T11:38:01.620Z,18.20
2022-10-23T11:40:30.529Z,18.50
2022-10-23T11:42:58.477Z,18.70
2022-10-23T11:45:33.033Z,18.90
2022-10-23T11:48:02.703Z,19.00
2022-10-23T11:50:34.610Z,19.10
2022-10-23T11:53:14.616Z,19.10
2022-10-23T11:56:02.484Z,19.10
2022-10-23T11:58:43.085Z,19.00
2022-10-23T12:01:27.045Z,19.10
2022-10-23T12:03:58.904Z,19.00
2022-10-23T12:06:30.315Z,19.00
2022-10-23T12:09:02.911Z,18.90
2022-10-23T12:11:43.794Z,19.00
2022-10-23T12:14:29.288Z,19.00
2022-10-23T12:16:57.453Z,19.00
2022-10-23T12:19:27.159Z,19.00
2022-10-23T12:22:00.355Z,18.90
2022-10-23T12:24:47.949Z,18.80
2022-10-23T12:27:27.806Z,18.70
2022-10-23T12:30:13.685Z,18.60
2022-10-23T12:32:54.517Z,18.60
2022-10-23T12:35:48.730Z,18.50
2022-10-23T12:38:21.267Z,18.60
2022-10-23T12:40:53.625Z,18.70
2022-10-23T12:43:28.915Z,18.80
2022-10-23T12:45:58.396Z,19.00
2022-10-23T12:48:26.421Z,19.10
2022-10-23T12:50:56.733Z,19.20
2022-10-23T12:53:26.231Z,19.30
2022-10-23T12:56:01.649Z,19.40
2022-10-23T12:58:32.035Z,19.50
2022-10-23T13:01:01.553Z,19.60
2022-10-23T13:03:31.574Z,19.70
2022-10-23T13:06:02.567Z,19.70
2022-10-23T13:08:35.626Z,19.70
2022-10-23T13:11:04.214Z,19.70
2022-10-23T13:13:42.631Z,19.60
2022-10-23T13:16:17.289Z,19.40
2022-10-23T13:18:45.318Z,19.30
2022-10-23T13:21:20.941Z,19.10
2022-10-23T13:23:50.802Z,19.10
2022-10-23T13:26:30.006Z,19.00
2022-10-23T13:28:58.718Z,18.90
2022-10-23T13:31:32.588Z,18.80
2022-10-23T13:34:20.227Z,18.60
2022-10-23T13:36:55.047Z,18.60
2022-10-23T13:39:30.683Z,18.50
2022-10-23T13:42:03.958Z,18.50
2022-10-23T13:44:32.507Z,18.50
2022-10-23T13:47:00.570Z,18.60
2022-10-23T13:49:28.616Z,18.60
2022-10-23T13:51:57.466Z,18.60
2022-10-23T13:56:57.784Z,18.70
2022-10-23T13:59:25.716Z,18.70
2022-10-23T14:01:53.753Z,18.70
2022-10-23T14:04:23.639Z,18.70
2022-10-23T14:06:54.730Z,18.70
2022-10-23T14:09:22.610Z,18.80
2022-10-23T14:11:51.893Z,18.80
2022-10-23T14:14:19.930Z,18.90
2022-10-23T14:16:47.886Z,18.90
2022-10-23T14:19:15.863Z,18.90
2022-10-23T14:21:43.784Z,18.80
2022-10-23T14:24:11.768Z,18.80
2022-10-23T14:26:39.650Z,18.70
2022-10-23T14:29:12.393Z,18.60
2022-10-23T14:31:46.658Z,18.60
2022-10-23T14:34:14.722Z,18.60
2022-10-23T14:36:50.118Z,18.50
2022-10-23T14:39:19.266Z,18.40
2022-10-23T14:41:47.281Z,18.40
2022-10-23T14:44:16.629Z,18.40
2022-10-23T14:46:44.800Z,18.40
2022-10-23T14:49:12.784Z,18.30
2022-10-23T14:51:40.769Z,18.30
2022-10-23T14:54:09.534Z,18.20
2022-10-23T14:56:39.358Z,18.10
2022-10-23T14:59:07.954Z,18.10
2022-10-23T15:01:43.680Z,18.10
2022-10-23T15:04:15.428Z,18.00
2022-10-23T15:06:43.777Z,18.00
2022-10-23T15:09:11.747Z,18.00
2022-10-23T15:11:40.156Z,17.90
2022-10-23T15:14:08.202Z,17.90
2022-10-23T15:16:41.367Z,17.90
2022-10-23T15:19:13.585Z,17.90
2022-10-23T15:21:45.285Z,17.90
2022-10-23T15:24:13.485Z,17.90
2022-10-23T15:26:43.249Z,17.80
2022-10-23T15:29:18.336Z,17.80
2022-10-23T15:31:54.980Z,17.80
2022-10-23T15:34:25.250Z,17.80
2022-10-23T15:36:55.053Z,17.80
2022-10-23T15:39:24.419Z,17.70
2022-10-23T15:41:54.149Z,17.70
2022-10-23T15:44:24.287Z,17.60
2022-10-23T15:46:53.733Z,17.60
2022-10-23T15:49:21.765Z,17.60
2022-10-23T15:51:49.601Z,17.60
2022-10-23T15:54:19.370Z,17.50
2022-10-23T15:56:48.839Z,17.50
2022-10-23T15:59:17.814Z,17.50
2022-10-23T16:01:45.971Z,17.40
2022-10-23T16:04:16.011Z,17.30
2022-10-23T16:06:45.139Z,17.30
2022-10-23T16:09:17.675Z,17.30
2022-10-23T16:11:45.723Z,17.30
2022-10-23T16:14:14.728Z,17.20
2022-10-23T16:16:43.272Z,17.20
2022-10-23T16:19:11.950Z,17.10
2022-10-23T16:21:41.358Z,17.10
2022-10-23T16:24:10.733Z,17.10
2022-10-23T16:26:39.295Z,17.00
2022-10-23T16:29:10.257Z,17.00
2022-10-23T16:31:38.331Z,17.00
2022-10-23T16:34:07.207Z,16.90
2022-10-23T16:36:39.191Z,16.90
2022-10-23T16:39:10.873Z,16.80
2022-10-23T16:41:38.858Z,16.80
2022-10-23T16:44:07.665Z,16.80
2022-10-23T16:46:36.066Z,16.70
2022-10-23T16:49:04.398Z,16.70
2022-10-23T16:51:33.326Z,16.70
2022-10-23T16:54:01.809Z,16.70
2022-10-23T16:56:31.629Z,16.80
2022-10-23T16:59:00.513Z,16.80
2022-10-23T17:01:31.684Z,16.80
2022-10-23T17:04:00.419Z,16.80
2022-10-23T17:06:30.313Z,16.80
2022-10-23T17:08:58.932Z,16.80
2022-10-23T17:11:28.634Z,16.80
2022-10-23T17:14:02.678Z,16.80
2022-10-23T17:16:34.419Z,16.80
2022-10-23T17:19:04.302Z,16.80
2022-10-23T17:21:39.094Z,16.70
2022-10-23T17:24:08.092Z,16.70
2022-10-23T17:26:36.401Z,16.70
2022-10-23T17:29:07.746Z,16.70
2022-10-23T17:31:37.366Z,16.70
2022-10-23T17:34:08.430Z,16.70
2022-10-23T17:36:39.943Z,16.70
2022-10-23T17:39:09.258Z,16.70
2022-10-23T17:41:38.268Z,16.60
2022-10-23T17:44:07.752Z,16.60
2022-10-23T17:46:35.818Z,16.50
2022-10-23T17:49:05.158Z,16.50
2022-10-23T17:51:36.270Z,16.50
2022-10-23T17:54:06.988Z,16.50
2022-10-23T17:56:37.594Z,16.50
2022-10-23T17:59:09.029Z,16.40
2022-10-23T18:01:37.542Z,16.40
2022-10-23T18:04:08.037Z,16.30
2022-10-23T18:06:38.327Z,16.30
2022-10-23T18:09:06.977Z,16.20
2022-10-23T18:11:37.135Z,16.20
2022-10-23T18:14:06.260Z,16.20
2022-10-23T18:16:39.550Z,16.20
2022-10-23T18:19:07.831Z,16.20
2022-10-23T18:21:35.875Z,16.20
2022-10-23T18:24:04.674Z,16.20
2022-10-23T18:26:34.955Z,16.20
2022-10-23T18:29:07.193Z,16.30
2022-10-23T18:31:37.749Z,16.30
2022-10-23T18:34:08.551Z,16.30
2022-10-23T18:36:39.346Z,16.30
2022-10-23T18:39:08.706Z,16.30
2022-10-23T18:41:38.666Z,16.30
2022-10-23T18:44:07.105Z,16.30
2022-10-23T18:46:37.189Z,16.30
2022-10-23T18:49:08.342Z,16.30
2022-10-23T18:51:37.978Z,16.30
2022-10-23T18:54:08.045Z,16.30
2022-10-23T18:56:38.352Z,16.30
2022-10-23T18:59:11.038Z,16.30
2022-10-23T19:01:40.267Z,16.30
2022-10-23T19:04:08.388Z,16.30
2022-10-23T19:06:37.439Z,16.30
2022-10-23T19:09:07.616Z,16.30
2022-10-23T19:11:35.739Z,16.30
2022-10-23T19:14:03.840Z,16.30
2022-10-23T19:16:36.198Z,16.30
2022-10-23T19:19:12.062Z,16.30
2022-10-23T19:21:59.190Z,16.20
2022-10-23T19:24:50.572Z,16.20
2022-10-23T19:27:21.002Z,16.20
2022-10-23T19:29:50.355Z,16.20
2022-10-23T19:32:18.580Z,16.10
2022-10-23T19:34:48.074Z,16.10
2022-10-23T19:37:16.678Z,16.20
2022-10-23T19:39:44.659Z,16.20
2022-10-23T19:42:13.254Z,16.20
2022-10-23T19:44:41.264Z,16.20
2022-10-23T19:47:09.221Z,16.20
2022-10-23T19:49:37.178Z,16.20
2022-10-23T19:52:06.772Z,16.20
2022-10-23T19:54:34.778Z,16.20
2022-10-23T19:57:02.778Z,16.10
2022-10-23T19:59:30.802Z,16.20
2022-10-23T20:01:58.994Z,16.20
2022-10-23T20:04:28.799Z,16.20
2022-10-23T20:06:56.939Z,16.20
2022-10-23T20:09:26.266Z,16.20
2022-10-23T20:11:55.568Z,16.10
2022-10-23T20:14:23.556Z,16.00
2022-10-23T20:16:55.694Z,16.00
2022-10-23T20:19:24.494Z,15.90
2022-10-23T20:21:52.466Z,15.80
2022-10-23T20:24:21.670Z,15.80
2022-10-23T20:26:52.774Z,15.80
2022-10-23T20:29:21.165Z,15.80
2022-10-23T20:31:49.281Z,15.80
2022-10-23T20:34:18.914Z,15.80
2022-10-23T20:36:48.981Z,15.80
2022-10-23T20:39:20.205Z,15.80
2022-10-23T20:41:49.860Z,15.80
2022-10-23T20:44:19.342Z,15.80
2022-10-23T20:46:47.584Z,15.90
2022-10-23T20:49:15.840Z,16.00
2022-10-23T20:51:43.993Z,16.00
2022-10-23T20:54:12.201Z,16.10
2022-10-23T20:56:40.856Z,16.10
2022-10-23T20:59:14.078Z,16.20
2022-10-23T21:01:43.382Z,16.20
2022-10-23T21:04:13.336Z,16.20
2022-10-23T21:06:57.663Z,16.20
2022-10-23T21:09:31.367Z,16.20
2022-10-23T21:11:59.490Z,16.20
2022-10-23T21:14:28.788Z,16.20
2022-10-23T21:16:56.784Z,16.20
2022-10-23T21:19:24.688Z,16.20
2022-10-23T21:21:52.728Z,16.20
2022-10-23T21:24:20.775Z,16.20
2022-10-23T21:26:48.700Z,16.20
2022-10-23T21:29:19.421Z,16.20
2022-10-23T21:31:54.668Z,16.20
2022-10-23T21:34:22.734Z,16.20
2022-10-23T21:39:38.842Z,16.20
2022-10-23T21:42:06.959Z,16.20
2022-10-23T21:44:35.031Z,16.20
2022-10-23T21:47:04.588Z,16.20
2022-10-23T21:49:32.719Z,16.20
2022-10-23T21:52:00.666Z,16.20
2022-10-23T21:54:28.671Z,16.20
2022-10-23T21:56:56.602Z,16.20
2022-10-23T21:59:30.040Z,16.20
2022-10-23T22:01:59.668Z,16.20
2022-10-23T22:04:29.166Z,16.20
2022-10-23T22:06:57.312Z,16.30
2022-10-23T22:09:25.494Z,16.30
2022-10-23T22:11:54.751Z,16.30
2022-10-23T22:14:23.785Z,16.40
2022-10-23T22:16:52.173Z,16.40
2022-10-23T22:19:21.608Z,16.40
2022-10-23T22:21:51.832Z,16.40
2022-10-23T22:24:19.990Z,16.40
2022-10-23T22:26:49.799Z,16.40
2022-10-23T22:29:19.377Z,16.40
2022-10-23T22:31:49.786Z,16.40
2022-10-23T22:34:28.826Z,16.30
2022-10-23T22:37:10.569Z,16.30
2022-10-23T22:39:39.264Z,16.30
2022-10-23T22:42:07.483Z,16.30
2022-10-23T22:44:35.494Z,16.30
2022-10-23T22:47:03.546Z,16.30
2022-10-23T22:49:31.516Z,16.30
2022-10-23T22:51:59.701Z,16.20
2022-10-23T22:54:30.561Z,16.20
2022-10-23T22:56:58.990Z,16.20
2022-10-23T22:59:27.184Z,16.20
2022-10-23T23:01:55.714Z,16.20
2022-10-23T23:04:37.352Z,16.20
2022-10-23T23:07:06.143Z,16.20
2022-10-23T23:09:37.546Z,16.20
2022-10-23T23:12:05.643Z,16.20
2022-10-23T23:14:33.604Z,16.10
2022-10-23T23:17:01.583Z,16.10
2022-10-23T23:19:29.580Z,16.10
2022-10-23T23:21:58.505Z,16.00
2022-10-23T23:24:26.532Z,16.00
2022-10-23T23:26:55.847Z,15.90
2022-10-23T23:29:23.878Z,15.90
2022-10-23T23:31:51.786Z,15.90
2022-10-23T23:34:19.839Z,15.90
2022-10-23T23:36:47.918Z,15.90
2022-10-23T23:39:15.982Z,15.90
2022-10-23T23:42:06.025Z,15.90
2022-10-23T23:44:38.973Z,15.80
2022-10-23T23:47:13.932Z,15.80
2022-10-23T23:49:41.993Z,15.80
2022-10-23T23:52:10.065Z,15.80
2022-10-23T23:54:37.986Z,15.80
2022-10-23T23:57:07.338Z,15.70
2022-10-23T23:59:38.749Z,15.70
